sensor_id;sensor_type;location;lat;lon;timestamp;temperature;humidity
74364;DHT22;62797;49.740;10.154;2022-12-29T00:01:40;8.60;44.70
74364;DHT22;62797;49.740;10.154;2022-12-29T00:04:05;8.60;44.80
74364;DHT22;62797;49.740;10.154;2022-12-29T00:06:31;8.60;45.10
74364;DHT22;62797;49.740;10.154;2022-12-29T00:08:57;8.60;45.20
74364;DHT22;62797;49.740;10.154;2022-12-29T00:11:25;8.60;44.90
74364;DHT22;62797;49.740;10.154;2022-12-29T00:13:51;8.50;46.20
74364;DHT22;62797;49.740;10.154;2022-12-29T00:16:36;8.40;46.20
74364;DHT22;62797;49.740;10.154;2022-12-29T00:19:03;8.40;46.50
74364;DHT22;62797;49.740;10.154;2022-12-29T00:21:29;8.30;46.20
74364;DHT22;62797;49.740;10.154;2022-12-29T00:24:18;8.20;46.80
74364;DHT22;62797;49.740;10.154;2022-12-29T00:29:47;8.30;47.30
74364;DHT22;62797;49.740;10.154;2022-12-29T00:32:31;8.30;48.10
74364;DHT22;62797;49.740;10.154;2022-12-29T00:35:32;8.30;48.10
74364;DHT22;62797;49.740;10.154;2022-12-29T00:38:01;8.30;47.40
74364;DHT22;62797;49.740;10.154;2022-12-29T00:40:46;8.30;48.60
74364;DHT22;62797;49.740;10.154;2022-12-29T00:43:30;8.20;48.80
74364;DHT22;62797;49.740;10.154;2022-12-29T00:46:15;8.10;49.60
74364;DHT22;62797;49.740;10.154;2022-12-29T00:48:40;8.10;50.20
74364;DHT22;62797;49.740;10.154;2022-12-29T00:51:24;8.10;50.30
74364;DHT22;62797;49.740;10.154;2022-12-29T00:53:50;8.00;50.30
74364;DHT22;62797;49.740;10.154;2022-12-29T00:56:15;8.10;50.20
74364;DHT22;62797;49.740;10.154;2022-12-29T00:58:41;8.20;50.80
74364;DHT22;62797;49.740;10.154;2022-12-29T01:01:08;8.10;51.30
74364;DHT22;62797;49.740;10.154;2022-12-29T01:03:35;8.10;51.50
74364;DHT22;62797;49.740;10.154;2022-12-29T01:06:03;8.10;51.80
74364;DHT22;62797;49.740;10.154;2022-12-29T01:08:29;8.10;51.60
74364;DHT22;62797;49.740;10.154;2022-12-29T01:11:08;8.00;51.30
74364;DHT22;62797;49.740;10.154;2022-12-29T01:13:35;8.10;51.70
74364;DHT22;62797;49.740;10.154;2022-12-29T01:16:01;8.10;51.90
74364;DHT22;62797;49.740;10.154;2022-12-29T01:18:27;8.00;52.40
74364;DHT22;62797;49.740;10.154;2022-12-29T01:21:04;8.00;52.10
74364;DHT22;62797;49.740;10.154;2022-12-29T01:23:30;8.00;52.80
74364;DHT22;62797;49.740;10.154;2022-12-29T01:26:07;8.00;52.80
74364;DHT22;62797;49.740;10.154;2022-12-29T01:28:33;8.00;52.70
74364;DHT22;62797;49.740;10.154;2022-12-29T01:31:00;8.00;52.50
74364;DHT22;62797;49.740;10.154;2022-12-29T01:33:26;8.10;52.00
74364;DHT22;62797;49.740;10.154;2022-12-29T01:35:51;8.10;52.10
74364;DHT22;62797;49.740;10.154;2022-12-29T01:38:17;8.10;52.10
74364;DHT22;62797;49.740;10.154;2022-12-29T01:40:44;8.10;52.30
74364;DHT22;62797;49.740;10.154;2022-12-29T01:43:11;8.10;52.50
74364;DHT22;62797;49.740;10.154;2022-12-29T01:45:38;8.10;52.20
74364;DHT22;62797;49.740;10.154;2022-12-29T01:48:05;8.10;52.70
74364;DHT22;62797;49.740;10.154;2022-12-29T01:50:38;8.10;52.60
74364;DHT22;62797;49.740;10.154;2022-12-29T01:53:16;8.10;52.50
74364;DHT22;62797;49.740;10.154;2022-12-29T01:55:50;8.20;51.80
74364;DHT22;62797;49.740;10.154;2022-12-29T01:58:19;8.40;51.00
74364;DHT22;62797;49.740;10.154;2022-12-29T02:00:46;8.50;50.60
74364;DHT22;62797;49.740;10.154;2022-12-29T02:03:11;8.80;49.30
74364;DHT22;62797;49.740;10.154;2022-12-29T02:05:55;9.00;49.20
74364;DHT22;62797;49.740;10.154;2022-12-29T02:08:25;9.10;48.60
74364;DHT22;62797;49.740;10.154;2022-12-29T02:10:52;9.10;48.40
74364;DHT22;62797;49.740;10.154;2022-12-29T02:13:18;9.20;48.20
74364;DHT22;62797;49.740;10.154;2022-12-29T02:16:11;9.50;47.40
74364;DHT22;62797;49.740;10.154;2022-12-29T02:21:44;10.10;45.50
74364;DHT22;62797;49.740;10.154;2022-12-29T02:24:46;10.30;45.40
74364;DHT22;62797;49.740;10.154;2022-12-29T02:30:06;10.40;45.30
74364;DHT22;62797;49.740;10.154;2022-12-29T02:32:46;10.60;46.30
74364;DHT22;62797;49.740;10.154;2022-12-29T02:35:19;10.80;46.70
74364;DHT22;62797;49.740;10.154;2022-12-29T02:37:55;10.60;48.40
74364;DHT22;62797;49.740;10.154;2022-12-29T02:43:13;10.40;50.40
74364;DHT22;62797;49.740;10.154;2022-12-29T02:45:58;10.50;50.90
74364;DHT22;62797;49.740;10.154;2022-12-29T02:48:50;10.40;51.60
74364;DHT22;62797;49.740;10.154;2022-12-29T02:51:41;10.40;51.70
74364;DHT22;62797;49.740;10.154;2022-12-29T02:54:08;10.40;52.80
74364;DHT22;62797;49.740;10.154;2022-12-29T02:56:52;10.30;53.80
74364;DHT22;62797;49.740;10.154;2022-12-29T02:59:19;10.30;53.40
74364;DHT22;62797;49.740;10.154;2022-12-29T03:07:29;10.20;55.60
74364;DHT22;62797;49.740;10.154;2022-12-29T03:10:55;10.20;55.80
74364;DHT22;62797;49.740;10.154;2022-12-29T03:13:12;10.10;56.90
74364;DHT22;62797;49.740;10.154;2022-12-29T03:21:47;10.10;58.40
74364;DHT22;62797;49.740;10.154;2022-12-29T03:24:40;10.10;58.60
74364;DHT22;62797;49.740;10.154;2022-12-29T03:27:08;10.00;59.00
74364;DHT22;62797;49.740;10.154;2022-12-29T03:29:39;10.10;59.10
74364;DHT22;62797;49.740;10.154;2022-12-29T03:32:07;10.10;58.90
74364;DHT22;62797;49.740;10.154;2022-12-29T03:34:35;10.10;59.10
74364;DHT22;62797;49.740;10.154;2022-12-29T03:37:06;10.10;58.30
74364;DHT22;62797;49.740;10.154;2022-12-29T03:39:35;10.10;58.80
74364;DHT22;62797;49.740;10.154;2022-12-29T03:42:13;10.00;58.70
74364;DHT22;62797;49.740;10.154;2022-12-29T03:44:41;10.00;58.50
74364;DHT22;62797;49.740;10.154;2022-12-29T03:47:09;10.00;58.80
74364;DHT22;62797;49.740;10.154;2022-12-29T03:49:35;10.00;58.40
74364;DHT22;62797;49.740;10.154;2022-12-29T03:52:01;10.10;57.50
74364;DHT22;62797;49.740;10.154;2022-12-29T03:54:26;10.10;57.60
74364;DHT22;62797;49.740;10.154;2022-12-29T03:56:52;10.10;57.40
74364;DHT22;62797;49.740;10.154;2022-12-29T03:59:17;10.10;57.30
74364;DHT22;62797;49.740;10.154;2022-12-29T04:01:43;10.10;57.90
74364;DHT22;62797;49.740;10.154;2022-12-29T04:04:08;10.00;57.90
74364;DHT22;62797;49.740;10.154;2022-12-29T04:06:34;10.00;58.10
74364;DHT22;62797;49.740;10.154;2022-12-29T04:09:00;10.00;57.60
74364;DHT22;62797;49.740;10.154;2022-12-29T04:11:25;10.10;57.20
74364;DHT22;62797;49.740;10.154;2022-12-29T04:13:51;10.10;57.50
74364;DHT22;62797;49.740;10.154;2022-12-29T04:16:16;10.10;56.60
74364;DHT22;62797;49.740;10.154;2022-12-29T04:18:42;10.10;56.80
74364;DHT22;62797;49.740;10.154;2022-12-29T04:21:07;10.20;56.60
74364;DHT22;62797;49.740;10.154;2022-12-29T04:23:36;10.30;55.40
74364;DHT22;62797;49.740;10.154;2022-12-29T04:26:03;10.30;55.60
74364;DHT22;62797;49.740;10.154;2022-12-29T04:28:29;10.30;55.00
74364;DHT22;62797;49.740;10.154;2022-12-29T04:30:55;10.40;54.30
74364;DHT22;62797;49.740;10.154;2022-12-29T04:33:21;10.40;54.20
74364;DHT22;62797;49.740;10.154;2022-12-29T04:35:47;10.50;53.20
74364;DHT22;62797;49.740;10.154;2022-12-29T04:38:13;10.60;52.20
74364;DHT22;62797;49.740;10.154;2022-12-29T04:40:40;10.60;52.50
74364;DHT22;62797;49.740;10.154;2022-12-29T04:43:06;10.60;51.80
74364;DHT22;62797;49.740;10.154;2022-12-29T04:45:32;10.60;52.30
74364;DHT22;62797;49.740;10.154;2022-12-29T04:47:58;10.60;52.20
74364;DHT22;62797;49.740;10.154;2022-12-29T04:50:23;10.60;52.20
74364;DHT22;62797;49.740;10.154;2022-12-29T04:52:49;10.70;51.60
74364;DHT22;62797;49.740;10.154;2022-12-29T04:55:14;10.70;51.00
74364;DHT22;62797;49.740;10.154;2022-12-29T04:57:40;10.60;51.20
74364;DHT22;62797;49.740;10.154;2022-12-29T05:00:08;10.60;51.00
74364;DHT22;62797;49.740;10.154;2022-12-29T05:02:37;10.50;51.20
74364;DHT22;62797;49.740;10.154;2022-12-29T05:05:03;10.40;51.50
74364;DHT22;62797;49.740;10.154;2022-12-29T05:07:29;10.20;52.20
74364;DHT22;62797;49.740;10.154;2022-12-29T05:09:54;10.20;52.10
74364;DHT22;62797;49.740;10.154;2022-12-29T05:12:20;10.10;52.60
74364;DHT22;62797;49.740;10.154;2022-12-29T05:14:45;10.10;53.70
74364;DHT22;62797;49.740;10.154;2022-12-29T05:17:11;10.10;52.90
74364;DHT22;62797;49.740;10.154;2022-12-29T05:19:37;10.10;53.60
74364;DHT22;62797;49.740;10.154;2022-12-29T05:22:03;10.00;53.60
74364;DHT22;62797;49.740;10.154;2022-12-29T05:24:29;10.00;53.30
74364;DHT22;62797;49.740;10.154;2022-12-29T05:26:54;9.90;53.10
74364;DHT22;62797;49.740;10.154;2022-12-29T05:29:20;9.90;53.40
74364;DHT22;62797;49.740;10.154;2022-12-29T05:31:45;9.80;53.00
74364;DHT22;62797;49.740;10.154;2022-12-29T05:34:11;9.80;52.30
74364;DHT22;62797;49.740;10.154;2022-12-29T05:36:37;9.80;52.30
74364;DHT22;62797;49.740;10.154;2022-12-29T05:39:03;9.70;52.40
74364;DHT22;62797;49.740;10.154;2022-12-29T05:41:28;9.70;51.30
74364;DHT22;62797;49.740;10.154;2022-12-29T05:43:54;9.70;51.30
74364;DHT22;62797;49.740;10.154;2022-12-29T05:46:19;9.70;50.40
74364;DHT22;62797;49.740;10.154;2022-12-29T05:48:45;9.70;50.80
74364;DHT22;62797;49.740;10.154;2022-12-29T05:51:10;9.60;50.90
74364;DHT22;62797;49.740;10.154;2022-12-29T05:53:36;9.50;50.40
74364;DHT22;62797;49.740;10.154;2022-12-29T05:56:01;9.60;49.60
74364;DHT22;62797;49.740;10.154;2022-12-29T05:58:27;9.60;49.50
74364;DHT22;62797;49.740;10.154;2022-12-29T06:00:52;9.60;49.40
74364;DHT22;62797;49.740;10.154;2022-12-29T06:03:18;9.50;49.30
74364;DHT22;62797;49.740;10.154;2022-12-29T06:05:45;9.50;49.30
74364;DHT22;62797;49.740;10.154;2022-12-29T06:08:11;9.60;49.00
74364;DHT22;62797;49.740;10.154;2022-12-29T06:10:37;9.60;48.70
74364;DHT22;62797;49.740;10.154;2022-12-29T06:13:02;9.60;48.70
74364;DHT22;62797;49.740;10.154;2022-12-29T06:15:33;9.60;49.30
74364;DHT22;62797;49.740;10.154;2022-12-29T06:17:59;9.50;49.40
74364;DHT22;62797;49.740;10.154;2022-12-29T06:20:24;9.50;49.60
74364;DHT22;62797;49.740;10.154;2022-12-29T06:22:50;9.50;49.80
74364;DHT22;62797;49.740;10.154;2022-12-29T06:25:16;9.50;50.10
74364;DHT22;62797;49.740;10.154;2022-12-29T06:27:42;9.60;49.60
74364;DHT22;62797;49.740;10.154;2022-12-29T06:30:08;9.60;49.60
74364;DHT22;62797;49.740;10.154;2022-12-29T06:32:34;9.60;48.90
74364;DHT22;62797;49.740;10.154;2022-12-29T06:35:00;9.60;48.90
74364;DHT22;62797;49.740;10.154;2022-12-29T06:37:25;9.60;49.00
74364;DHT22;62797;49.740;10.154;2022-12-29T06:39:51;9.70;48.70
74364;DHT22;62797;49.740;10.154;2022-12-29T06:42:17;9.80;48.30
74364;DHT22;62797;49.740;10.154;2022-12-29T06:44:42;9.80;48.00
74364;DHT22;62797;49.740;10.154;2022-12-29T06:47:08;9.70;48.90
74364;DHT22;62797;49.740;10.154;2022-12-29T06:49:33;9.80;48.80
74364;DHT22;62797;49.740;10.154;2022-12-29T06:51:59;9.70;48.10
74364;DHT22;62797;49.740;10.154;2022-12-29T06:54:26;9.70;48.70
74364;DHT22;62797;49.740;10.154;2022-12-29T06:56:51;9.80;49.30
74364;DHT22;62797;49.740;10.154;2022-12-29T06:59:17;9.80;48.40
74364;DHT22;62797;49.740;10.154;2022-12-29T07:01:42;9.70;48.70
74364;DHT22;62797;49.740;10.154;2022-12-29T07:04:08;9.80;48.80
74364;DHT22;62797;49.740;10.154;2022-12-29T07:06:33;9.80;49.00
74364;DHT22;62797;49.740;10.154;2022-12-29T07:08:59;9.80;48.70
74364;DHT22;62797;49.740;10.154;2022-12-29T07:11:24;9.80;48.70
74364;DHT22;62797;49.740;10.154;2022-12-29T07:13:51;9.80;49.10
74364;DHT22;62797;49.740;10.154;2022-12-29T07:16:16;9.80;50.10
74364;DHT22;62797;49.740;10.154;2022-12-29T07:18:42;9.70;50.80
74364;DHT22;62797;49.740;10.154;2022-12-29T07:21:08;9.70;51.10
74364;DHT22;62797;49.740;10.154;2022-12-29T07:23:34;9.60;52.00
74364;DHT22;62797;49.740;10.154;2022-12-29T07:26:05;9.50;52.80
74364;DHT22;62797;49.740;10.154;2022-12-29T07:28:31;9.50;51.90
74364;DHT22;62797;49.740;10.154;2022-12-29T07:30:57;9.50;52.50
74364;DHT22;62797;49.740;10.154;2022-12-29T07:33:23;9.40;52.50
74364;DHT22;62797;49.740;10.154;2022-12-29T07:35:49;9.50;52.50
74364;DHT22;62797;49.740;10.154;2022-12-29T07:38:15;9.50;52.40
74364;DHT22;62797;49.740;10.154;2022-12-29T07:40:42;9.50;52.50
74364;DHT22;62797;49.740;10.154;2022-12-29T07:43:08;9.50;52.20
74364;DHT22;62797;49.740;10.154;2022-12-29T07:45:33;9.50;52.30
74364;DHT22;62797;49.740;10.154;2022-12-29T07:47:59;9.50;52.80
74364;DHT22;62797;49.740;10.154;2022-12-29T07:50:24;9.60;52.10
74364;DHT22;62797;49.740;10.154;2022-12-29T07:52:50;9.60;52.70
74364;DHT22;62797;49.740;10.154;2022-12-29T07:55:16;9.60;52.00
74364;DHT22;62797;49.740;10.154;2022-12-29T07:57:42;9.60;52.70
74364;DHT22;62797;49.740;10.154;2022-12-29T08:00:09;9.70;52.70
74364;DHT22;62797;49.740;10.154;2022-12-29T08:02:35;9.70;53.10
74364;DHT22;62797;49.740;10.154;2022-12-29T08:05:01;9.80;51.40
74364;DHT22;62797;49.740;10.154;2022-12-29T08:07:27;10.00;51.20
74364;DHT22;62797;49.740;10.154;2022-12-29T08:09:52;10.10;50.60
74364;DHT22;62797;49.740;10.154;2022-12-29T08:12:18;10.20;50.00
74364;DHT22;62797;49.740;10.154;2022-12-29T08:14:44;10.40;49.60
74364;DHT22;62797;49.740;10.154;2022-12-29T08:17:09;10.50;48.80
74364;DHT22;62797;49.740;10.154;2022-12-29T08:19:36;10.60;48.30
74364;DHT22;62797;49.740;10.154;2022-12-29T08:22:01;10.60;48.60
74364;DHT22;62797;49.740;10.154;2022-12-29T08:24:27;10.60;48.80
74364;DHT22;62797;49.740;10.154;2022-12-29T08:26:53;10.80;47.70
74364;DHT22;62797;49.740;10.154;2022-12-29T08:29:18;10.80;48.00
74364;DHT22;62797;49.740;10.154;2022-12-29T08:31:44;10.80;48.00
74364;DHT22;62797;49.740;10.154;2022-12-29T08:34:10;10.80;48.00
74364;DHT22;62797;49.740;10.154;2022-12-29T08:36:36;10.70;48.50
74364;DHT22;62797;49.740;10.154;2022-12-29T08:39:02;10.70;48.20
74364;DHT22;62797;49.740;10.154;2022-12-29T08:41:27;10.80;48.60
74364;DHT22;62797;49.740;10.154;2022-12-29T08:43:53;10.90;47.60
74364;DHT22;62797;49.740;10.154;2022-12-29T08:46:18;10.90;48.00
74364;DHT22;62797;49.740;10.154;2022-12-29T08:48:44;10.90;48.10
74364;DHT22;62797;49.740;10.154;2022-12-29T08:51:11;10.90;47.70
74364;DHT22;62797;49.740;10.154;2022-12-29T08:53:36;11.00;47.20
74364;DHT22;62797;49.740;10.154;2022-12-29T08:56:02;11.10;46.60
74364;DHT22;62797;49.740;10.154;2022-12-29T08:58:28;11.20;46.00
74364;DHT22;62797;49.740;10.154;2022-12-29T09:00:55;11.20;46.00
74364;DHT22;62797;49.740;10.154;2022-12-29T09:03:22;11.30;45.30
74364;DHT22;62797;49.740;10.154;2022-12-29T09:05:49;11.40;44.60
74364;DHT22;62797;49.740;10.154;2022-12-29T09:08:15;11.60;43.60
74364;DHT22;62797;49.740;10.154;2022-12-29T09:10:40;11.60;43.60
74364;DHT22;62797;49.740;10.154;2022-12-29T09:13:06;11.60;43.50
74364;DHT22;62797;49.740;10.154;2022-12-29T09:15:32;11.60;43.90
74364;DHT22;62797;49.740;10.154;2022-12-29T09:17:57;11.70;43.50
74364;DHT22;62797;49.740;10.154;2022-12-29T09:20:23;11.80;43.30
74364;DHT22;62797;49.740;10.154;2022-12-29T09:22:48;11.70;43.50
74364;DHT22;62797;49.740;10.154;2022-12-29T09:25:15;11.60;44.40
74364;DHT22;62797;49.740;10.154;2022-12-29T09:27:40;11.70;43.70
74364;DHT22;62797;49.740;10.154;2022-12-29T09:30:08;11.70;43.70
74364;DHT22;62797;49.740;10.154;2022-12-29T09:32:35;11.70;44.20
74364;DHT22;62797;49.740;10.154;2022-12-29T09:35:01;11.70;44.10
74364;DHT22;62797;49.740;10.154;2022-12-29T09:37:26;11.70;43.60
74364;DHT22;62797;49.740;10.154;2022-12-29T09:39:52;11.70;44.40
74364;DHT22;62797;49.740;10.154;2022-12-29T09:42:38;11.60;43.90
74364;DHT22;62797;49.740;10.154;2022-12-29T09:45:14;11.70;43.20
74364;DHT22;62797;49.740;10.154;2022-12-29T09:47:42;11.70;43.90
74364;DHT22;62797;49.740;10.154;2022-12-29T09:53:04;11.70;43.30
74364;DHT22;62797;49.740;10.154;2022-12-29T09:55:38;11.70;42.80
74364;DHT22;62797;49.740;10.154;2022-12-29T10:01:30;11.60;43.30
74364;DHT22;62797;49.740;10.154;2022-12-29T10:03:56;11.70;43.50
74364;DHT22;62797;49.740;10.154;2022-12-29T10:12:06;11.60;43.50
74364;DHT22;62797;49.740;10.154;2022-12-29T10:14:51;11.70;42.60
74364;DHT22;62797;49.740;10.154;2022-12-29T10:23:19;11.50;44.10
74364;DHT22;62797;49.740;10.154;2022-12-29T10:25:47;11.60;43.10
74364;DHT22;62797;49.740;10.154;2022-12-29T10:28:29;11.50;43.10
74364;DHT22;62797;49.740;10.154;2022-12-29T10:30:56;11.50;43.40
74364;DHT22;62797;49.740;10.154;2022-12-29T10:33:31;11.50;44.20
74364;DHT22;62797;49.740;10.154;2022-12-29T10:35:59;11.60;43.40
74364;DHT22;62797;49.740;10.154;2022-12-29T10:41:13;11.80;42.20
74364;DHT22;62797;49.740;10.154;2022-12-29T10:43:49;11.90;41.30
74364;DHT22;62797;49.740;10.154;2022-12-29T10:46:21;12.00;40.70
74364;DHT22;62797;49.740;10.154;2022-12-29T10:48:48;12.10;41.80
74364;DHT22;62797;49.740;10.154;2022-12-29T10:51:26;12.10;41.20
74364;DHT22;62797;49.740;10.154;2022-12-29T10:54:15;12.20;40.30
74364;DHT22;62797;49.740;10.154;2022-12-29T10:56:47;12.30;40.40
74364;DHT22;62797;49.740;10.154;2022-12-29T10:59:20;12.40;39.60
74364;DHT22;62797;49.740;10.154;2022-12-29T11:07:34;12.80;39.20
74364;DHT22;62797;49.740;10.154;2022-12-29T11:10:20;12.80;39.70
74364;DHT22;62797;49.740;10.154;2022-12-29T11:13:01;12.80;40.30
74364;DHT22;62797;49.740;10.154;2022-12-29T11:15:38;12.80;40.60
74364;DHT22;62797;49.740;10.154;2022-12-29T11:18:04;13.00;40.10
74364;DHT22;62797;49.740;10.154;2022-12-29T11:20:36;13.10;40.10
74364;DHT22;62797;49.740;10.154;2022-12-29T11:23:03;13.10;39.70
74364;DHT22;62797;49.740;10.154;2022-12-29T11:25:29;13.30;40.00
74364;DHT22;62797;49.740;10.154;2022-12-29T11:28:12;13.40;40.50
74364;DHT22;62797;49.740;10.154;2022-12-29T11:30:39;13.60;39.10
74364;DHT22;62797;49.740;10.154;2022-12-29T11:33:04;13.70;40.00
74364;DHT22;62797;49.740;10.154;2022-12-29T11:35:41;13.60;39.00
74364;DHT22;62797;49.740;10.154;2022-12-29T11:38:22;13.60;39.40
74364;DHT22;62797;49.740;10.154;2022-12-29T11:40:49;13.40;39.90
74364;DHT22;62797;49.740;10.154;2022-12-29T11:43:39;13.60;38.60
74364;DHT22;62797;49.740;10.154;2022-12-29T11:46:06;13.70;38.70
74364;DHT22;62797;49.740;10.154;2022-12-29T11:48:38;13.60;39.30
74364;DHT22;62797;49.740;10.154;2022-12-29T11:51:05;13.50;39.00
74364;DHT22;62797;49.740;10.154;2022-12-29T11:53:38;13.60;38.50
74364;DHT22;62797;49.740;10.154;2022-12-29T11:56:16;13.60;38.10
74364;DHT22;62797;49.740;10.154;2022-12-29T11:58:43;13.60;38.20
74364;DHT22;62797;49.740;10.154;2022-12-29T12:01:17;13.60;37.50
74364;DHT22;62797;49.740;10.154;2022-12-29T12:03:57;13.60;37.80
74364;DHT22;62797;49.740;10.154;2022-12-29T12:06:25;13.60;38.40
74364;DHT22;62797;49.740;10.154;2022-12-29T12:08:59;13.90;37.20
74364;DHT22;62797;49.740;10.154;2022-12-29T12:11:31;13.90;36.20
74364;DHT22;62797;49.740;10.154;2022-12-29T12:14:17;13.80;36.70
74364;DHT22;62797;49.740;10.154;2022-12-29T12:20:22;13.70;36.00
74364;DHT22;62797;49.740;10.154;2022-12-29T12:22:58;13.90;35.70
74364;DHT22;62797;49.740;10.154;2022-12-29T12:25:48;14.00;34.80
74364;DHT22;62797;49.740;10.154;2022-12-29T12:28:26;14.00;34.90
74364;DHT22;62797;49.740;10.154;2022-12-29T12:30:56;14.00;34.50
74364;DHT22;62797;49.740;10.154;2022-12-29T12:33:28;14.00;33.70
74364;DHT22;62797;49.740;10.154;2022-12-29T12:41:54;14.00;34.60
74364;DHT22;62797;49.740;10.154;2022-12-29T12:49:57;14.00;33.40
74364;DHT22;62797;49.740;10.154;2022-12-29T12:52:56;14.10;33.50
74364;DHT22;62797;49.740;10.154;2022-12-29T12:58:22;14.30;32.30
74364;DHT22;62797;49.740;10.154;2022-12-29T13:09:43;14.10;33.40
74364;DHT22;62797;49.740;10.154;2022-12-29T13:18:34;13.50;34.40
74364;DHT22;62797;49.740;10.154;2022-12-29T13:30:12;13.10;34.40
74364;DHT22;62797;49.740;10.154;2022-12-29T13:33:02;13.20;34.20
74364;DHT22;62797;49.740;10.154;2022-12-29T13:35:41;13.30;33.40
74364;DHT22;62797;49.740;10.154;2022-12-29T13:38:22;13.20;33.50
74364;DHT22;62797;49.740;10.154;2022-12-29T13:40:59;13.10;33.80
74364;DHT22;62797;49.740;10.154;2022-12-29T13:43:27;13.00;34.70
74364;DHT22;62797;49.740;10.154;2022-12-29T13:46:03;12.90;34.60
74364;DHT22;62797;49.740;10.154;2022-12-29T13:48:51;13.10;34.30
74364;DHT22;62797;49.740;10.154;2022-12-29T13:51:20;12.80;35.70
74364;DHT22;62797;49.740;10.154;2022-12-29T13:54:13;12.80;35.20
74364;DHT22;62797;49.740;10.154;2022-12-29T13:56:51;12.80;35.00
74364;DHT22;62797;49.740;10.154;2022-12-29T14:02:07;12.60;35.00
74364;DHT22;62797;49.740;10.154;2022-12-29T14:04:34;12.50;35.50
74364;DHT22;62797;49.740;10.154;2022-12-29T14:07:15;12.50;35.30
74364;DHT22;62797;49.740;10.154;2022-12-29T14:12:31;12.50;36.20
74364;DHT22;62797;49.740;10.154;2022-12-29T14:17:37;12.60;35.80
74364;DHT22;62797;49.740;10.154;2022-12-29T14:20:06;12.60;35.80
74364;DHT22;62797;49.740;10.154;2022-12-29T14:22:56;12.50;37.10
74364;DHT22;62797;49.740;10.154;2022-12-29T14:25:52;12.40;37.40
74364;DHT22;62797;49.740;10.154;2022-12-29T14:28:29;12.50;37.30
74364;DHT22;62797;49.740;10.154;2022-12-29T14:34:14;12.30;38.60
74364;DHT22;62797;49.740;10.154;2022-12-29T14:39:00;12.20;39.60
74364;DHT22;62797;49.740;10.154;2022-12-29T14:41:32;12.00;39.90
74364;DHT22;62797;49.740;10.154;2022-12-29T14:44:09;12.10;40.00
74364;DHT22;62797;49.740;10.154;2022-12-29T14:49:20;11.90;41.10
74364;DHT22;62797;49.740;10.154;2022-12-29T14:51:47;12.00;40.70
74364;DHT22;62797;49.740;10.154;2022-12-29T14:57:03;11.90;40.20
74364;DHT22;62797;49.740;10.154;2022-12-29T14:59:30;11.80;40.80
74364;DHT22;62797;49.740;10.154;2022-12-29T15:01:58;11.90;40.20
74364;DHT22;62797;49.740;10.154;2022-12-29T15:04:30;11.90;40.20
74364;DHT22;62797;49.740;10.154;2022-12-29T15:06:56;11.90;40.00
74364;DHT22;62797;49.740;10.154;2022-12-29T15:09:59;11.80;40.20
74364;DHT22;62797;49.740;10.154;2022-12-29T15:14:56;11.80;39.80
74364;DHT22;62797;49.740;10.154;2022-12-29T15:17:31;11.70;39.50
74364;DHT22;62797;49.740;10.154;2022-12-29T15:19:59;11.70;40.20
74364;DHT22;62797;49.740;10.154;2022-12-29T15:22:25;11.70;39.90
74364;DHT22;62797;49.740;10.154;2022-12-29T15:24:52;11.60;39.50
74364;DHT22;62797;49.740;10.154;2022-12-29T15:27:24;11.70;39.70
74364;DHT22;62797;49.740;10.154;2022-12-29T15:30:02;11.50;40.50
74364;DHT22;62797;49.740;10.154;2022-12-29T15:32:39;11.50;40.80
74364;DHT22;62797;49.740;10.154;2022-12-29T15:35:29;11.40;41.50
74364;DHT22;62797;49.740;10.154;2022-12-29T15:37:56;11.40;41.90
74364;DHT22;62797;49.740;10.154;2022-12-29T15:40:27;11.30;42.80
74364;DHT22;62797;49.740;10.154;2022-12-29T15:45:40;11.20;44.50
74364;DHT22;62797;49.740;10.154;2022-12-29T15:48:21;11.10;46.40
74364;DHT22;62797;49.740;10.154;2022-12-29T15:50:48;10.90;49.70
74364;DHT22;62797;49.740;10.154;2022-12-29T15:53:33;10.60;53.00
74364;DHT22;62797;49.740;10.154;2022-12-29T15:56:09;10.30;58.10
74364;DHT22;62797;49.740;10.154;2022-12-29T15:58:50;10.10;62.00
74364;DHT22;62797;49.740;10.154;2022-12-29T16:01:19;9.80;64.70
74364;DHT22;62797;49.740;10.154;2022-12-29T16:03:45;9.70;65.60
74364;DHT22;62797;49.740;10.154;2022-12-29T16:06:29;9.50;67.30
74364;DHT22;62797;49.740;10.154;2022-12-29T16:09:05;9.30;68.30
74364;DHT22;62797;49.740;10.154;2022-12-29T16:11:33;9.10;70.80
74364;DHT22;62797;49.740;10.154;2022-12-29T16:14:00;9.00;71.30
74364;DHT22;62797;49.740;10.154;2022-12-29T16:16:36;9.00;72.00
74364;DHT22;62797;49.740;10.154;2022-12-29T16:19:27;8.90;73.00
74364;DHT22;62797;49.740;10.154;2022-12-29T16:21:54;8.90;73.60
74364;DHT22;62797;49.740;10.154;2022-12-29T16:24:24;8.80;74.30
74364;DHT22;62797;49.740;10.154;2022-12-29T16:27:09;8.80;73.80
74364;DHT22;62797;49.740;10.154;2022-12-29T16:29:39;8.80;73.60
74364;DHT22;62797;49.740;10.154;2022-12-29T16:32:29;8.70;73.60
74364;DHT22;62797;49.740;10.154;2022-12-29T16:35:24;8.70;74.70
74364;DHT22;62797;49.740;10.154;2022-12-29T16:38:17;8.70;74.60
74364;DHT22;62797;49.740;10.154;2022-12-29T16:40:54;8.70;74.10
74364;DHT22;62797;49.740;10.154;2022-12-29T16:43:26;8.70;75.10
74364;DHT22;62797;49.740;10.154;2022-12-29T16:48:18;8.60;75.90
74364;DHT22;62797;49.740;10.154;2022-12-29T16:50:45;8.60;76.30
74364;DHT22;62797;49.740;10.154;2022-12-29T16:53:29;8.60;76.50
74364;DHT22;62797;49.740;10.154;2022-12-29T16:55:58;8.60;76.40
74364;DHT22;62797;49.740;10.154;2022-12-29T16:58:27;8.60;77.00
74364;DHT22;62797;49.740;10.154;2022-12-29T17:00:56;8.50;76.90
74364;DHT22;62797;49.740;10.154;2022-12-29T17:03:38;8.50;77.10
74364;DHT22;62797;49.740;10.154;2022-12-29T17:06:04;8.50;76.90
74364;DHT22;62797;49.740;10.154;2022-12-29T17:08:39;8.40;76.60
74364;DHT22;62797;49.740;10.154;2022-12-29T17:11:29;8.40;77.00
74364;DHT22;62797;49.740;10.154;2022-12-29T17:17:30;8.30;76.40
74364;DHT22;62797;49.740;10.154;2022-12-29T17:19:59;8.30;76.60
74364;DHT22;62797;49.740;10.154;2022-12-29T17:22:28;8.20;76.80
74364;DHT22;62797;49.740;10.154;2022-12-29T17:24:56;8.20;77.10
74364;DHT22;62797;49.740;10.154;2022-12-29T17:27:36;8.20;77.40
74364;DHT22;62797;49.740;10.154;2022-12-29T17:30:08;8.20;77.30
74364;DHT22;62797;49.740;10.154;2022-12-29T17:32:34;8.10;77.90
74364;DHT22;62797;49.740;10.154;2022-12-29T17:35:00;8.10;77.50
74364;DHT22;62797;49.740;10.154;2022-12-29T17:37:33;8.10;77.80
74364;DHT22;62797;49.740;10.154;2022-12-29T17:39:59;8.10;77.60
74364;DHT22;62797;49.740;10.154;2022-12-29T17:42:25;8.10;78.00
74364;DHT22;62797;49.740;10.154;2022-12-29T17:44:51;8.10;77.70
74364;DHT22;62797;49.740;10.154;2022-12-29T17:47:17;8.10;77.40